createdAt,value
2018-12-18T00:00:40.491Z,0
2018-12-18T00:01:40.764Z,0
2018-12-18T00:02:40.793Z,0
2018-12-18T00:03:46.163Z,0
2018-12-18T00:04:40.555Z,0
2018-12-18T00:05:40.575Z,0
2018-12-18T00:06:40.340Z,0
2018-12-18T00:07:40.866Z,0
2018-12-18T00:08:40.881Z,0
2018-12-18T00:09:40.668Z,0
2018-12-18T00:10:40.684Z,0
2018-12-18T00:11:40.934Z,0
2018-12-18T00:12:40.702Z,0
2018-12-18T00:13:40.723Z,0
2018-12-18T00:14:41.771Z,0
2018-12-18T00:15:40.749Z,0
2018-12-18T00:16:40.769Z,0
2018-12-18T00:17:41.035Z,0
2018-12-18T00:18:40.539Z,0
2018-12-18T00:19:40.818Z,0
2018-12-18T00:20:41.082Z,0
2018-12-18T00:21:41.114Z,0
2018-12-18T00:22:41.417Z,0
2018-12-18T00:23:40.888Z,0
2018-12-18T00:24:40.659Z,0
2018-12-18T00:25:40.667Z,0
2018-12-18T00:26:41.186Z,0
2018-12-18T00:27:40.688Z,0
2018-12-18T00:28:40.716Z,0
2018-12-18T00:29:41.508Z,0
2018-12-18T00:30:41.003Z,0
2018-12-18T00:31:40.755Z,0
2018-12-18T00:32:41.039Z,0
2018-12-18T00:33:45.993Z,0
2018-12-18T00:34:41.079Z,0
2018-12-18T00:35:41.089Z,0
2018-12-18T00:36:41.358Z,0
2018-12-18T00:37:40.873Z,0
2018-12-18T00:38:40.878Z,0
2018-12-18T00:39:41.156Z,0
2018-12-18T00:40:40.918Z,0
2018-12-18T00:41:41.191Z,0
2018-12-18T00:42:41.466Z,0
2018-12-18T00:43:40.981Z,0
2018-12-18T00:44:40.979Z,0
2018-12-18T00:45:41.257Z,0
2018-12-18T00:46:41.287Z,0
2018-12-18T00:47:41.293Z,0
2018-12-18T00:48:41.053Z,0
2018-12-18T00:49:41.335Z,0
2018-12-18T00:50:41.606Z,0
2018-12-18T00:51:41.884Z,0
2018-12-18T00:52:41.382Z,0
2018-12-18T00:53:41.391Z,0
2018-12-18T00:54:41.414Z,0
2018-12-18T00:55:41.694Z,0
2018-12-18T00:56:41.441Z,0
2018-12-18T00:57:41.713Z,0
2018-12-18T00:58:41.747Z,0
2018-12-18T00:59:41.751Z,0
2018-12-18T01:00:41.521Z,0
2018-12-18T01:01:41.532Z,0
2018-12-18T01:02:41.547Z,0
2018-12-18T01:03:41.559Z,0
2018-12-18T01:04:41.580Z,0
2018-12-18T01:05:41.344Z,0
2018-12-18T01:06:41.885Z,0
2018-12-18T01:07:41.396Z,0
2018-12-18T01:08:41.920Z,0
2018-12-18T01:09:41.403Z,0
2018-12-18T01:10:41.699Z,0
2018-12-18T01:11:41.700Z,0
2018-12-18T01:12:41.720Z,0
2018-12-18T01:13:41.478Z,0
2018-12-18T01:14:41.764Z,0
2018-12-18T01:15:41.529Z,0
2018-12-18T01:16:41.523Z,0
2018-12-18T01:17:42.064Z,0
2018-12-18T01:18:42.093Z,0
2018-12-18T01:19:42.092Z,0
2018-12-18T01:20:42.137Z,0
2018-12-18T01:21:42.393Z,0
2018-12-18T01:22:42.176Z,0
2018-12-18T01:23:41.906Z,0
2018-12-18T01:24:41.674Z,0
2018-12-18T01:25:42.471Z,0
2018-12-18T01:26:41.953Z,0
2018-12-18T01:27:41.980Z,0
2018-12-18T01:28:42.264Z,0
2018-12-18T01:29:42.018Z,0
2018-12-18T01:30:41.774Z,0
2018-12-18T01:31:42.309Z,0
2018-12-18T01:32:42.343Z,0
2018-12-18T01:33:42.338Z,0
2018-12-18T01:34:42.126Z,0
2018-12-18T01:35:42.124Z,0
2018-12-18T01:36:42.402Z,0
2018-12-18T01:37:42.155Z,0
2018-12-18T01:38:42.429Z,0
2018-12-18T01:39:42.186Z,0
2018-12-18T01:40:42.202Z,0
2018-12-18T01:41:42.222Z,0
2018-12-18T01:42:42.506Z,0
2018-12-18T01:43:42.009Z,0
2018-12-18T01:44:42.024Z,0
2018-12-18T01:45:42.545Z,0
2018-12-18T01:46:42.314Z,0
2018-12-18T01:47:42.850Z,0
2018-12-18T01:48:42.332Z,0
2018-12-18T01:49:42.348Z,0
2018-12-18T01:50:42.675Z,0
2018-12-18T01:51:42.126Z,0
2018-12-18T01:52:42.415Z,0
2018-12-18T01:53:42.681Z,0
2018-12-18T01:54:42.700Z,0
2018-12-18T01:55:42.476Z,0
2018-12-18T01:56:42.757Z,0
2018-12-18T01:57:42.749Z,0
2018-12-18T01:58:42.515Z,0
2018-12-18T01:59:42.786Z,0
2018-12-18T02:00:42.581Z,0
2018-12-18T02:01:42.568Z,0
2018-12-18T02:02:42.844Z,0
2018-12-18T02:03:42.597Z,0
2018-12-18T02:04:42.880Z,0
2018-12-18T02:05:42.379Z,0
2018-12-18T02:06:42.919Z,0
2018-12-18T02:07:42.665Z,0
2018-12-18T02:08:42.698Z,0
2018-12-18T02:09:42.696Z,0
2018-12-18T02:10:42.712Z,0
2018-12-18T02:11:42.748Z,0
2018-12-18T02:12:42.746Z,0
2018-12-18T02:13:42.761Z,0
2018-12-18T02:14:42.530Z,0
2018-12-18T02:15:43.060Z,0
2018-12-18T02:16:42.823Z,0
2018-12-18T02:17:42.841Z,0
2018-12-18T02:18:42.863Z,0
2018-12-18T02:19:43.385Z,0
2018-12-18T02:20:42.895Z,0
2018-12-18T02:21:42.642Z,0
2018-12-18T02:22:42.674Z,0
2018-12-18T02:23:42.683Z,0
2018-12-18T02:24:42.958Z,0
2018-12-18T02:25:43.235Z,0
2018-12-18T02:26:42.750Z,0
2018-12-18T02:27:43.289Z,0
2018-12-18T02:28:43.022Z,0
2018-12-18T02:29:42.780Z,0
2018-12-18T02:30:43.349Z,0
2018-12-18T02:31:43.354Z,0
2018-12-18T02:32:43.109Z,0
2018-12-18T02:33:43.118Z,0
2018-12-18T02:34:43.133Z,0
2018-12-18T02:35:43.153Z,0
2018-12-18T02:36:43.680Z,0
2018-12-18T02:37:43.185Z,0
2018-12-18T02:38:43.467Z,0
2018-12-18T02:39:43.480Z,0
2018-12-18T02:40:43.238Z,0
2018-12-18T02:41:43.539Z,0
2018-12-18T02:42:43.269Z,0
2018-12-18T02:43:43.291Z,0
2018-12-18T02:44:43.305Z,0
2018-12-18T02:45:43.325Z,0
2018-12-18T02:46:43.359Z,0
2018-12-18T02:47:43.086Z,0
2018-12-18T02:48:43.390Z,0
2018-12-18T02:49:43.380Z,0
2018-12-18T02:50:43.153Z,0
2018-12-18T02:51:43.428Z,0
2018-12-18T02:52:43.199Z,0
2018-12-18T02:53:43.478Z,0
2018-12-18T02:54:43.769Z,0
2018-12-18T02:55:43.748Z,0
2018-12-18T02:56:43.514Z,0
2018-12-18T02:57:43.548Z,0
2018-12-18T02:58:43.558Z,0
2018-12-18T02:59:43.555Z,0
2018-12-18T03:00:44.097Z,0
2018-12-18T03:01:43.883Z,0
2018-12-18T03:02:43.877Z,0
2018-12-18T03:03:43.366Z,0
2018-12-18T03:04:43.937Z,0
2018-12-18T03:05:43.665Z,0
2018-12-18T03:06:43.690Z,0
2018-12-18T03:07:43.951Z,0
2018-12-18T03:08:43.987Z,0
2018-12-18T03:09:44.253Z,0
2018-12-18T03:10:44.014Z,0
2018-12-18T03:11:43.801Z,0
2018-12-18T03:12:44.043Z,0
2018-12-18T03:13:43.536Z,0
2018-12-18T03:14:43.819Z,0
2018-12-18T03:15:43.569Z,0
2018-12-18T03:16:43.858Z,0
2018-12-18T03:17:44.388Z,0
2018-12-18T03:18:43.885Z,0
2018-12-18T03:19:43.644Z,0
2018-12-18T03:20:43.938Z,0
2018-12-18T03:21:43.684Z,0
2018-12-18T03:22:43.966Z,0
2018-12-18T03:23:43.983Z,0
2018-12-18T03:24:43.724Z,0
2018-12-18T03:25:44.036Z,0
2018-12-18T03:26:44.455Z,0
2018-12-18T03:27:44.306Z,0
2018-12-18T03:28:44.063Z,0
2018-12-18T03:29:43.833Z,0
2018-12-18T03:30:44.364Z,0
2018-12-18T03:31:43.945Z,0
2018-12-18T03:32:44.148Z,0
2018-12-18T03:33:44.141Z,0
2018-12-18T03:34:44.218Z,0
2018-12-18T03:35:44.164Z,0
2018-12-18T03:36:44.201Z,0
2018-12-18T03:37:43.946Z,0
2018-12-18T03:38:44.502Z,0
2018-12-18T03:39:44.245Z,0
2018-12-18T03:40:44.529Z,0
2018-12-18T03:41:44.540Z,0
2018-12-18T03:42:44.806Z,0
2018-12-18T03:43:44.067Z,0
2018-12-18T03:44:44.923Z,0
2018-12-18T03:45:44.339Z,0
2018-12-18T03:46:44.364Z,0
2018-12-18T03:47:44.653Z,0
2018-12-18T03:48:44.150Z,0
2018-12-18T03:49:44.933Z,0
2018-12-18T03:50:44.171Z,0
2018-12-18T03:51:44.482Z,0
2018-12-18T03:52:44.896Z,0
2018-12-18T03:53:44.752Z,0
2018-12-18T03:54:45.026Z,0
2018-12-18T03:55:44.535Z,0
2018-12-18T03:56:44.278Z,0
2018-12-18T03:57:44.575Z,0
2018-12-18T03:58:44.335Z,0
2018-12-18T03:59:44.582Z,0
2018-12-18T04:00:44.954Z,0
2018-12-18T04:01:44.888Z,0
2018-12-18T04:02:44.656Z,0
2018-12-18T04:03:44.654Z,0
2018-12-18T04:04:44.428Z,0
2018-12-18T04:05:44.440Z,0
2018-12-18T04:06:44.700Z,0
2018-12-18T04:07:45.024Z,0
2018-12-18T04:08:44.753Z,0
2018-12-18T04:09:44.499Z,0
2018-12-18T04:10:45.050Z,0
2018-12-18T04:11:44.807Z,0
2018-12-18T04:12:44.821Z,0
2018-12-18T04:13:44.825Z,0
2018-12-18T04:14:45.118Z,0
2018-12-18T04:15:44.873Z,0
2018-12-18T04:16:45.156Z,0
2018-12-18T04:17:45.160Z,0
2018-12-18T04:18:44.656Z,0
2018-12-18T04:19:45.479Z,0
2018-12-18T04:20:44.956Z,0
2018-12-18T04:21:45.480Z,0
2018-12-18T04:22:45.294Z,0
2018-12-18T04:23:45.010Z,0
2018-12-18T04:24:45.298Z,0
2018-12-18T04:25:45.037Z,0
2018-12-18T04:26:45.042Z,0
2018-12-18T04:27:45.330Z,0
2018-12-18T04:28:45.362Z,0
2018-12-18T04:29:45.618Z,0
2018-12-18T04:30:45.127Z,0
2018-12-18T04:31:45.215Z,0
2018-12-18T04:32:45.150Z,0
2018-12-18T04:33:44.915Z,0
2018-12-18T04:34:49.821Z,0
2018-12-18T04:35:45.206Z,0
2018-12-18T04:36:45.229Z,0
2018-12-18T04:37:45.243Z,0
2018-12-18T04:38:45.259Z,0
2018-12-18T04:39:45.796Z,0
2018-12-18T04:40:45.573Z,0
2018-12-18T04:41:45.318Z,0
2018-12-18T04:42:45.326Z,0
2018-12-18T04:43:45.088Z,0
2018-12-18T04:44:45.366Z,0
2018-12-18T04:45:45.116Z,0
2018-12-18T04:46:45.652Z,0
2018-12-18T04:47:45.662Z,0
2018-12-18T04:48:45.422Z,0
2018-12-18T04:49:45.714Z,0
2018-12-18T04:50:45.459Z,0
2018-12-18T04:51:45.797Z,0
2018-12-18T04:52:45.746Z,0
2018-12-18T04:53:46.045Z,0
2018-12-18T04:54:45.808Z,0
2018-12-18T04:55:45.818Z,0
2018-12-18T04:56:45.569Z,0
2018-12-18T04:57:45.855Z,0
2018-12-18T04:58:45.863Z,0
2018-12-18T04:59:45.893Z,0
2018-12-18T05:00:45.903Z,0
2018-12-18T05:01:45.926Z,0
2018-12-18T05:02:45.926Z,0
2018-12-18T05:03:45.416Z,0
2018-12-18T05:04:52.581Z,0
2018-12-18T05:05:45.981Z,0
2018-12-18T05:06:45.479Z,0
2018-12-18T05:07:45.745Z,0
2018-12-18T05:08:45.513Z,0
2018-12-18T05:09:45.533Z,0
2018-12-18T05:10:45.807Z,0
2018-12-18T05:11:45.830Z,0
2018-12-18T05:12:45.588Z,0
2018-12-18T05:13:46.117Z,0
2018-12-18T05:14:45.877Z,0
2018-12-18T05:15:45.680Z,0
2018-12-18T05:16:46.165Z,0
2018-12-18T05:17:45.665Z,0
2018-12-18T05:18:46.449Z,0
2018-12-18T05:19:46.214Z,0
2018-12-18T05:20:46.250Z,0
2018-12-18T05:21:45.986Z,0
2018-12-18T05:22:46.275Z,0
2018-12-18T05:23:46.294Z,0
2018-12-18T05:24:46.318Z,0
2018-12-18T05:25:46.060Z,0
2018-12-18T05:26:46.416Z,0
2018-12-18T05:27:46.093Z,0
2018-12-18T05:28:45.921Z,0
2018-12-18T05:29:46.157Z,0
2018-12-18T05:30:46.163Z,0
2018-12-18T05:31:46.446Z,0
2018-12-18T05:32:46.183Z,0
2018-12-18T05:33:45.945Z,0
2018-12-18T05:34:46.224Z,0
2018-12-18T05:35:45.978Z,0
2018-12-18T05:36:45.997Z,0
2018-12-18T05:37:46.531Z,0
2018-12-18T05:38:46.277Z,0
2018-12-18T05:39:46.050Z,0
2018-12-18T05:40:46.062Z,0
2018-12-18T05:41:46.599Z,0
2018-12-18T05:42:46.098Z,0
2018-12-18T05:43:46.376Z,0
2018-12-18T05:44:46.396Z,0
2018-12-18T05:45:46.404Z,0
2018-12-18T05:46:46.677Z,0
2018-12-18T05:47:46.714Z,0
2018-12-18T05:48:46.467Z,0
2018-12-18T05:49:46.492Z,0
2018-12-18T05:50:47.015Z,0
2018-12-18T05:51:46.762Z,0
2018-12-18T05:52:46.271Z,0
2018-12-18T05:53:46.284Z,0
2018-12-18T05:54:47.090Z,0
2018-12-18T05:55:46.864Z,0
2018-12-18T05:56:46.610Z,0
2018-12-18T05:57:46.407Z,0
2018-12-18T05:58:46.898Z,0
2018-12-18T05:59:46.383Z,0
2018-12-18T06:00:46.923Z,0
2018-12-18T06:01:46.949Z,0
2018-12-18T06:02:46.703Z,0
2018-12-18T06:03:46.453Z,0
2018-12-18T06:04:46.984Z,0
2018-12-18T06:05:46.487Z,0
2018-12-18T06:06:46.515Z,0
2018-12-18T06:07:46.524Z,0
2018-12-18T06:08:46.803Z,0
2018-12-18T06:09:46.834Z,0
2018-12-18T06:10:47.103Z,0
2018-12-18T06:11:46.615Z,0
2018-12-18T06:12:48.247Z,0
2018-12-18T06:13:46.636Z,0
2018-12-18T06:14:47.171Z,0
2018-12-18T06:15:46.919Z,0
2018-12-18T06:16:46.686Z,0
2018-12-18T06:17:46.950Z,0
2018-12-18T06:18:46.981Z,0
2018-12-18T06:19:46.736Z,0
2018-12-18T06:20:47.012Z,0
2018-12-18T06:21:47.033Z,0
2018-12-18T06:22:47.307Z,0
2018-12-18T06:23:47.059Z,0
2018-12-18T06:24:46.817Z,0
2018-12-18T06:25:47.114Z,0
2018-12-18T06:26:47.128Z,0
2018-12-18T06:27:47.126Z,0
2018-12-18T06:28:47.160Z,0
2018-12-18T06:29:47.172Z,0
2018-12-18T06:30:47.184Z,0
2018-12-18T06:31:47.216Z,0
2018-12-18T06:32:47.223Z,0
2018-12-18T06:33:46.984Z,0
2018-12-18T06:34:47.504Z,0
2018-12-18T06:35:47.802Z,0
2018-12-18T06:36:47.540Z,0
2018-12-18T06:37:47.575Z,0
2018-12-18T06:38:47.315Z,0
2018-12-18T06:39:47.351Z,0
2018-12-18T06:40:47.092Z,0
2018-12-18T06:41:47.373Z,0
2018-12-18T06:42:47.139Z,0
2018-12-18T06:43:47.152Z,0
2018-12-18T06:44:47.163Z,0
2018-12-18T06:45:47.190Z,0
2018-12-18T06:46:47.203Z,0
2018-12-18T06:47:47.471Z,0
2018-12-18T06:48:47.762Z,0
2018-12-18T06:49:47.245Z,0
2018-12-18T06:50:47.539Z,0
2018-12-18T06:51:48.052Z,0
2018-12-18T06:52:47.304Z,0
2018-12-18T06:53:47.846Z,0
2018-12-18T06:54:47.351Z,0
2018-12-18T06:55:47.618Z,0
2018-12-18T06:56:47.638Z,0
2018-12-18T06:57:47.656Z,0
2018-12-18T06:58:47.921Z,0
2018-12-18T06:59:47.424Z,0
2018-12-18T07:00:47.967Z,0
2018-12-18T07:01:47.711Z,0
2018-12-18T07:02:47.735Z,0
2018-12-18T07:03:47.761Z,4
2018-12-18T07:04:47.772Z,0
2018-12-18T07:05:48.057Z,4
2018-12-18T07:06:47.798Z,0
2018-12-18T07:07:48.074Z,4
2018-12-18T07:08:47.586Z,0
2018-12-18T07:09:47.589Z,4
2018-12-18T07:10:48.132Z,4
2018-12-18T07:11:48.144Z,4
2018-12-18T07:12:47.650Z,4
2018-12-18T07:13:48.176Z,4
2018-12-18T07:14:48.472Z,8
2018-12-18T07:15:47.707Z,4
2018-12-18T07:16:47.968Z,4
2018-12-18T07:17:48.523Z,8
2018-12-18T07:18:48.270Z,8
2018-12-18T07:19:48.286Z,8
2018-12-18T07:20:48.054Z,12
2018-12-18T07:21:48.048Z,8
2018-12-18T07:22:48.083Z,8
2018-12-18T07:23:48.103Z,12
2018-12-18T07:24:48.113Z,12
2018-12-18T07:25:48.393Z,16
2018-12-18T07:26:48.410Z,12
2018-12-18T07:27:48.415Z,16
2018-12-18T07:28:49.966Z,16
2018-12-18T07:29:48.531Z,16
2018-12-18T07:30:48.488Z,16
2018-12-18T07:31:48.499Z,20
2018-12-18T07:32:48.259Z,16
2018-12-18T07:33:48.286Z,20
2018-12-18T07:34:49.705Z,24
2018-12-18T07:35:48.305Z,24
2018-12-18T07:36:48.056Z,24
2018-12-18T07:37:48.337Z,28
2018-12-18T07:38:48.349Z,28
2018-12-18T07:39:48.366Z,36
2018-12-18T07:40:48.391Z,40
2018-12-18T07:41:48.672Z,40
2018-12-18T07:42:48.689Z,44
2018-12-18T07:43:48.182Z,44
2018-12-18T07:44:48.720Z,48
2018-12-18T07:45:48.470Z,52
2018-12-18T07:46:48.512Z,56
2018-12-18T07:47:48.249Z,60
2018-12-18T07:48:48.537Z,64
2018-12-18T07:49:48.288Z,68
2018-12-18T07:50:48.565Z,76
2018-12-18T07:51:48.331Z,80
2018-12-18T07:52:48.610Z,88
2018-12-18T07:53:48.359Z,96
2018-12-18T07:54:48.881Z,108
2018-12-18T07:55:48.407Z,112
2018-12-18T07:56:49.245Z,104
2018-12-18T07:57:48.693Z,112
2018-12-18T07:58:48.948Z,120
2018-12-18T07:59:48.974Z,116
2018-12-18T08:00:49.001Z,104
2018-12-18T08:01:49.010Z,104
2018-12-18T08:02:48.767Z,112
2018-12-18T08:03:48.790Z,128
2018-12-18T08:04:48.807Z,156
2018-12-18T08:05:49.347Z,160
2018-12-18T08:06:48.849Z,168
2018-12-18T08:07:49.127Z,188
2018-12-18T08:08:48.863Z,188
2018-12-18T08:09:48.896Z,180
2018-12-18T08:10:49.166Z,200
2018-12-18T08:11:48.674Z,208
2018-12-18T08:12:48.936Z,208
2018-12-18T08:13:49.219Z,212
2018-12-18T08:14:48.998Z,216
2018-12-18T08:15:50.583Z,220
2018-12-18T08:16:48.768Z,228
2018-12-18T08:17:49.285Z,232
2018-12-18T08:18:49.054Z,220
2018-12-18T08:19:49.318Z,228
2018-12-18T08:20:50.576Z,252
2018-12-18T08:21:48.856Z,260
2018-12-18T08:22:48.863Z,248
2018-12-18T08:23:49.386Z,260
2018-12-18T08:24:49.410Z,292
2018-12-18T08:25:49.154Z,316
2018-12-18T08:26:49.493Z,336
2018-12-18T08:27:49.201Z,352
2018-12-18T08:28:49.235Z,360
2018-12-18T08:29:49.043Z,376
2018-12-18T08:30:49.522Z,400
2018-12-18T08:31:49.527Z,416
2018-12-18T08:32:49.287Z,404
2018-12-18T08:33:49.045Z,432
2018-12-18T08:34:49.328Z,416
2018-12-18T08:35:49.356Z,460
2018-12-18T08:36:49.376Z,488
2018-12-18T08:37:49.107Z,496
2018-12-18T08:38:49.134Z,512
2018-12-18T08:39:49.684Z,524
2018-12-18T08:40:49.429Z,528
2018-12-18T08:41:49.708Z,532
2018-12-18T08:42:49.468Z,584
2018-12-18T08:43:49.743Z,556
2018-12-18T08:44:49.244Z,536
2018-12-18T08:45:49.764Z,544
2018-12-18T08:46:49.783Z,556
2018-12-18T08:47:49.545Z,588
2018-12-18T08:48:49.835Z,604
2018-12-18T08:49:49.579Z,624
2018-12-18T08:50:49.612Z,628
2018-12-18T08:51:49.369Z,620
2018-12-18T08:52:49.715Z,648
2018-12-18T08:53:50.170Z,708
2018-12-18T08:54:49.935Z,684
2018-12-18T08:55:49.952Z,676
2018-12-18T08:56:50.222Z,692
2018-12-18T08:57:49.996Z,676
2018-12-18T08:58:50.003Z,700
2018-12-18T08:59:49.493Z,704
2018-12-18T09:00:49.776Z,712
2018-12-18T09:01:49.794Z,704
2018-12-18T09:02:50.069Z,716
2018-12-18T09:03:50.216Z,708
2018-12-18T09:04:49.595Z,708
2018-12-18T09:05:50.515Z,712
2018-12-18T09:06:49.881Z,720
2018-12-18T09:07:50.414Z,712
2018-12-18T09:08:49.918Z,720
2018-12-18T09:09:49.928Z,736
2018-12-18T09:10:49.940Z,732
2018-12-18T09:11:49.971Z,724
2018-12-18T09:12:50.329Z,744
2018-12-18T09:13:50.011Z,752
2018-12-18T09:14:50.022Z,752
2018-12-18T09:15:50.288Z,752
2018-12-18T09:16:50.557Z,756
2018-12-18T09:17:50.060Z,744
2018-12-18T09:18:49.824Z,736
2018-12-18T09:19:50.123Z,756
2018-12-18T09:20:49.886Z,760
2018-12-18T09:21:49.874Z,760
2018-12-18T09:22:49.899Z,744
2018-12-18T09:23:49.926Z,756
2018-12-18T09:24:50.202Z,752
2018-12-18T09:25:50.479Z,752
2018-12-18T09:26:50.741Z,748
2018-12-18T09:27:50.239Z,748
2018-12-18T09:28:50.015Z,748
2018-12-18T09:29:50.294Z,740
2018-12-18T09:30:50.311Z,744
2018-12-18T09:31:50.580Z,744
2018-12-18T09:32:50.585Z,744
2018-12-18T09:33:50.340Z,740
2018-12-18T09:34:50.669Z,740
2018-12-18T09:35:56.594Z,740
2018-12-18T09:36:50.417Z,724
2018-12-18T09:37:50.159Z,728
2018-12-18T09:38:50.427Z,736
2018-12-18T09:39:50.516Z,744
2018-12-18T09:40:50.462Z,732
2018-12-18T09:41:50.482Z,732
2018-12-18T09:42:50.756Z,736
2018-12-18T09:43:50.511Z,732
2018-12-18T09:44:50.797Z,716
2018-12-18T09:45:50.567Z,728
2018-12-18T09:46:51.013Z,740
2018-12-18T09:47:50.335Z,732
2018-12-18T09:48:50.606Z,724
2018-12-18T09:49:50.624Z,744
2018-12-18T09:50:51.162Z,744
2018-12-18T09:51:50.930Z,740
2018-12-18T09:52:50.668Z,732
2018-12-18T09:53:50.433Z,736
2018-12-18T09:54:50.968Z,740
2018-12-18T09:55:51.240Z,740
2018-12-18T09:56:50.744Z,760
2018-12-18T09:57:51.027Z,764
2018-12-18T09:58:50.525Z,760
2018-12-18T09:59:51.083Z,792
2018-12-18T10:00:51.082Z,804
2018-12-18T10:01:50.573Z,804
2018-12-18T10:02:51.132Z,796
2018-12-18T10:03:51.117Z,804
2018-12-18T10:04:50.898Z,804
2018-12-18T10:05:56.212Z,804
2018-12-18T10:06:52.189Z,792
2018-12-18T10:07:50.680Z,792
2018-12-18T10:08:51.216Z,796
2018-12-18T10:09:50.991Z,792
2018-12-18T10:10:51.271Z,788
2018-12-18T10:11:50.805Z,780
2018-12-18T10:12:51.289Z,780
2018-12-18T10:13:51.046Z,776
2018-12-18T10:14:50.807Z,772
2018-12-18T10:15:51.334Z,760
2018-12-18T10:16:51.088Z,760
2018-12-18T10:17:51.137Z,768
2018-12-18T10:18:51.390Z,768
2018-12-18T10:19:51.175Z,756
2018-12-18T10:20:51.163Z,764
2018-12-18T10:21:50.925Z,764
2018-12-18T10:22:51.723Z,756
2018-12-18T10:23:51.473Z,760
2018-12-18T10:24:51.763Z,772
2018-12-18T10:25:51.515Z,760
2018-12-18T10:26:51.273Z,768
2018-12-18T10:27:51.551Z,768
2018-12-18T10:28:51.325Z,780
2018-12-18T10:29:51.324Z,776
2018-12-18T10:30:51.601Z,768
2018-12-18T10:31:51.094Z,768
2018-12-18T10:32:51.389Z,756
2018-12-18T10:33:51.137Z,752
2018-12-18T10:34:51.468Z,744
2018-12-18T10:35:51.693Z,740
2018-12-18T10:36:51.447Z,752
2018-12-18T10:37:51.459Z,752
2018-12-18T10:38:51.476Z,756
2018-12-18T10:39:51.251Z,760
2018-12-18T10:40:51.778Z,752
2018-12-18T10:41:51.293Z,748
2018-12-18T10:42:51.552Z,732
2018-12-18T10:43:51.832Z,744
2018-12-18T10:44:51.584Z,752
2018-12-18T10:45:51.370Z,752
2018-12-18T10:46:51.883Z,744
2018-12-18T10:47:51.653Z,752
2018-12-18T10:48:51.400Z,744
2018-12-18T10:49:51.686Z,740
2018-12-18T10:50:52.297Z,748
2018-12-18T10:51:51.990Z,756
2018-12-18T10:52:51.464Z,756
2018-12-18T10:53:51.770Z,764
2018-12-18T10:54:52.529Z,764
2018-12-18T10:55:52.061Z,756
2018-12-18T10:56:51.826Z,752
2018-12-18T10:57:52.094Z,752
2018-12-18T10:58:51.831Z,748
2018-12-18T10:59:51.609Z,748
2018-12-18T11:00:51.621Z,740
2018-12-18T11:01:51.890Z,736
2018-12-18T11:02:51.914Z,728
2018-12-18T11:03:52.188Z,720
2018-12-18T11:04:52.254Z,708
2018-12-18T11:05:52.235Z,700
2018-12-18T11:06:51.982Z,688
2018-12-18T11:07:52.249Z,692
2018-12-18T11:08:52.025Z,704
2018-12-18T11:09:52.022Z,712
2018-12-18T11:10:52.043Z,720
2018-12-18T11:11:52.320Z,736
2018-12-18T11:12:51.824Z,764
2018-12-18T11:13:52.115Z,776
2018-12-18T11:14:51.849Z,784
2018-12-18T11:15:52.130Z,788
2018-12-18T11:16:52.425Z,772
2018-12-18T11:17:52.187Z,772
2018-12-18T11:18:52.200Z,772
2018-12-18T11:19:51.953Z,784
2018-12-18T11:20:52.538Z,792
2018-12-18T11:21:52.305Z,784
2018-12-18T11:22:52.005Z,788
2018-12-18T11:23:52.530Z,792
2018-12-18T11:24:52.805Z,792
2018-12-18T11:25:52.589Z,804
2018-12-18T11:26:52.695Z,804
2018-12-18T11:27:52.359Z,808
2018-12-18T11:28:52.377Z,820
2018-12-18T11:29:52.403Z,820
2018-12-18T11:30:52.402Z,816
2018-12-18T11:31:52.150Z,816
2018-12-18T11:32:52.964Z,820
2018-12-18T11:33:52.451Z,812
2018-12-18T11:34:52.470Z,800
2018-12-18T11:35:52.488Z,784
2018-12-18T11:36:52.777Z,780
2018-12-18T11:37:52.538Z,784
2018-12-18T11:38:52.540Z,788
2018-12-18T11:39:52.569Z,784
2018-12-18T11:40:52.599Z,784
2018-12-18T11:41:52.336Z,776
2018-12-18T11:42:52.882Z,772
2018-12-18T11:43:52.789Z,768
2018-12-18T11:44:52.656Z,760
2018-12-18T11:45:52.920Z,764
2018-12-18T11:46:52.947Z,760
2018-12-18T11:47:52.694Z,760
2018-12-18T11:48:52.716Z,764
2018-12-18T11:49:52.733Z,768
2018-12-18T11:50:52.746Z,764
2018-12-18T11:51:53.031Z,764
2018-12-18T11:52:52.792Z,756
2018-12-18T11:53:52.828Z,748
2018-12-18T11:54:52.578Z,744
2018-12-18T11:55:53.114Z,740
2018-12-18T11:56:52.859Z,736
2018-12-18T11:57:52.886Z,728
2018-12-18T11:58:52.649Z,728
2018-12-18T11:59:53.446Z,724
2018-12-18T12:00:52.920Z,724
2018-12-18T12:01:52.951Z,724
2018-12-18T12:02:52.710Z,720
2018-12-18T12:03:52.723Z,712
2018-12-18T12:04:53.265Z,708
2018-12-18T12:05:53.268Z,704
2018-12-18T12:06:53.291Z,708
2018-12-18T12:07:53.049Z,708
2018-12-18T12:08:53.062Z,712
2018-12-18T12:09:53.081Z,712
2018-12-18T12:10:53.104Z,712
2018-12-18T12:11:53.113Z,704
2018-12-18T12:12:53.394Z,696
2018-12-18T12:13:53.421Z,688
2018-12-18T12:14:53.431Z,688
2018-12-18T12:15:53.444Z,688
2018-12-18T12:16:53.213Z,676
2018-12-18T12:17:53.227Z,676
2018-12-18T12:18:53.759Z,668
2018-12-18T12:19:53.026Z,672
2018-12-18T12:20:53.540Z,668
2018-12-18T12:21:53.561Z,668
2018-12-18T12:22:53.058Z,668
2018-12-18T12:23:53.078Z,672
2018-12-18T12:24:53.344Z,664
2018-12-18T12:25:53.363Z,656
2018-12-18T12:26:53.632Z,648
2018-12-18T12:27:53.412Z,648
2018-12-18T12:28:53.427Z,636
2018-12-18T12:29:53.436Z,628
2018-12-18T12:30:53.463Z,612
2018-12-18T12:31:53.739Z,604
2018-12-18T12:32:54.033Z,592
2018-12-18T12:33:53.755Z,580
2018-12-18T12:34:53.783Z,580
2018-12-18T12:35:53.276Z,588
2018-12-18T12:36:54.125Z,604
2018-12-18T12:37:53.585Z,624
2018-12-18T12:38:53.847Z,636
2018-12-18T12:39:53.890Z,656
2018-12-18T12:40:53.882Z,676
2018-12-18T12:41:53.915Z,692
2018-12-18T12:42:53.680Z,704
2018-12-18T12:43:53.693Z,692
2018-12-18T12:44:53.447Z,684
2018-12-18T12:45:53.984Z,676
2018-12-18T12:46:53.986Z,676
2018-12-18T12:47:54.274Z,684
2018-12-18T12:48:53.769Z,688
2018-12-18T12:49:53.811Z,708
2018-12-18T12:50:53.815Z,724
2018-12-18T12:51:53.821Z,736
2018-12-18T12:52:53.847Z,740
2018-12-18T12:53:54.109Z,740
2018-12-18T12:54:54.147Z,752
2018-12-18T12:55:53.891Z,752
2018-12-18T12:56:54.437Z,756
2018-12-18T12:57:53.922Z,744
2018-12-18T12:58:53.939Z,744
2018-12-18T12:59:54.235Z,748
2018-12-18T13:00:54.303Z,748
2018-12-18T13:01:53.991Z,744
2018-12-18T13:02:54.280Z,740
2018-12-18T13:03:54.032Z,732
2018-12-18T13:04:53.821Z,740
2018-12-18T13:05:54.073Z,736
2018-12-18T13:06:54.147Z,740
2018-12-18T13:07:53.858Z,736
2018-12-18T13:08:53.866Z,736
2018-12-18T13:09:54.150Z,728
2018-12-18T13:10:54.412Z,724
2018-12-18T13:11:54.170Z,712
2018-12-18T13:12:54.454Z,704
2018-12-18T13:13:54.220Z,700
2018-12-18T13:14:53.979Z,688
2018-12-18T13:15:54.255Z,680
2018-12-18T13:16:54.259Z,672
2018-12-18T13:17:54.280Z,664
2018-12-18T13:18:54.315Z,652
2018-12-18T13:19:54.312Z,676
2018-12-18T13:20:54.077Z,660
2018-12-18T13:21:54.354Z,672
2018-12-18T13:22:54.374Z,652
2018-12-18T13:23:54.387Z,640
2018-12-18T13:24:54.673Z,616
2018-12-18T13:25:54.429Z,620
2018-12-18T13:26:54.189Z,624
2018-12-18T13:27:54.736Z,616
2018-12-18T13:28:54.219Z,616
2018-12-18T13:29:54.751Z,624
2018-12-18T13:30:54.512Z,612
2018-12-18T13:31:55.059Z,604
2018-12-18T13:32:54.309Z,612
2018-12-18T13:33:55.068Z,616
2018-12-18T13:34:54.578Z,628
2018-12-18T13:35:54.599Z,612
2018-12-18T13:36:54.871Z,588
2018-12-18T13:37:54.383Z,588
2018-12-18T13:38:54.906Z,588
2018-12-18T13:39:54.659Z,588
2018-12-18T13:40:54.711Z,588
2018-12-18T13:41:54.683Z,592
2018-12-18T13:42:54.468Z,592
2018-12-18T13:43:54.478Z,592
2018-12-18T13:44:55.022Z,592
2018-12-18T13:45:54.511Z,592
2018-12-18T13:46:54.787Z,588
2018-12-18T13:47:54.563Z,580
2018-12-18T13:48:54.833Z,576
2018-12-18T13:49:55.104Z,568
2018-12-18T13:50:54.909Z,560
2018-12-18T13:51:55.398Z,548
2018-12-18T13:52:55.404Z,540
2018-12-18T13:53:55.180Z,536
2018-12-18T13:54:54.931Z,532
2018-12-18T13:55:55.203Z,528
2018-12-18T13:56:55.230Z,524
2018-12-18T13:57:54.982Z,520
2018-12-18T13:58:54.752Z,516
2018-12-18T13:59:55.017Z,512
2018-12-18T14:00:55.327Z,516
2018-12-18T14:01:55.045Z,512
2018-12-18T14:02:55.590Z,508
2018-12-18T14:03:55.107Z,500
2018-12-18T14:04:55.383Z,496
2018-12-18T14:05:55.138Z,484
2018-12-18T14:06:56.577Z,476
2018-12-18T14:07:55.448Z,464
2018-12-18T14:08:55.183Z,452
2018-12-18T14:09:55.205Z,444
2018-12-18T14:10:55.464Z,432
2018-12-18T14:11:55.495Z,420
2018-12-18T14:12:55.779Z,412
2018-12-18T14:13:55.527Z,404
2018-12-18T14:14:55.304Z,396
2018-12-18T14:15:55.563Z,388
2018-12-18T14:16:55.466Z,384
2018-12-18T14:17:55.084Z,372